createdAt,value
2022-12-31T00:01:17.974Z,2.47
2022-12-31T00:03:44.246Z,2.51
2022-12-31T00:06:10.510Z,2.70
2022-12-31T00:08:36.766Z,2.50
2022-12-31T00:11:03.007Z,2.58
2022-12-31T00:13:29.251Z,2.72
2022-12-31T00:15:55.527Z,2.49
2022-12-31T00:18:21.828Z,2.25
2022-12-31T00:20:48.117Z,2.27
2022-12-31T00:23:14.377Z,2.29
2022-12-31T00:25:40.644Z,2.25
2022-12-31T00:28:06.953Z,2.27
2022-12-31T00:30:33.267Z,2.10
2022-12-31T00:32:59.538Z,2.28
2022-12-31T00:35:25.812Z,2.55
2022-12-31T00:37:52.057Z,2.71
2022-12-31T00:40:18.366Z,2.59
2022-12-31T00:42:44.627Z,2.71
2022-12-31T00:45:10.891Z,2.94
2022-12-31T00:47:37.167Z,2.87
2022-12-31T00:50:03.529Z,3.01
2022-12-31T00:52:29.831Z,2.72
2022-12-31T00:54:56.086Z,2.98
2022-12-31T00:57:22.345Z,3.05
2022-12-31T00:59:48.615Z,2.88
2022-12-31T01:02:15.043Z,2.82
2022-12-31T01:04:41.448Z,2.81
2022-12-31T01:07:07.764Z,2.57
2022-12-31T01:09:34.032Z,2.42
2022-12-31T01:12:00.311Z,2.69
2022-12-31T01:14:26.661Z,2.91
2022-12-31T01:16:52.951Z,2.72
2022-12-31T01:19:20.247Z,2.71
2022-12-31T01:21:46.516Z,2.29
2022-12-31T01:24:12.787Z,2.52
2022-12-31T01:26:39.060Z,2.24
2022-12-31T01:29:05.337Z,2.69
2022-12-31T01:31:31.670Z,2.40
2022-12-31T01:33:57.958Z,2.16
2022-12-31T01:36:26.102Z,2.51
2022-12-31T01:38:52.652Z,2.36
2022-12-31T01:41:18.925Z,2.25
2022-12-31T01:43:45.203Z,2.20
2022-12-31T01:46:11.530Z,2.39
2022-12-31T01:48:37.830Z,2.21
2022-12-31T01:51:04.089Z,2.41
2022-12-31T01:53:30.336Z,2.34
2022-12-31T01:55:56.603Z,2.35
2022-12-31T01:58:22.917Z,2.24
2022-12-31T02:00:49.182Z,2.15
2022-12-31T02:03:15.496Z,2.32
2022-12-31T02:05:41.804Z,2.39
2022-12-31T02:08:08.094Z,2.22
2022-12-31T02:10:34.382Z,2.38
2022-12-31T02:13:00.669Z,2.39
2022-12-31T02:15:26.925Z,2.43
2022-12-31T02:17:53.185Z,2.29
2022-12-31T02:20:19.477Z,2.20
2022-12-31T02:22:45.775Z,2.44
2022-12-31T02:25:12.351Z,2.24
2022-12-31T02:27:38.609Z,2.09
2022-12-31T02:30:04.855Z,2.09
2022-12-31T02:32:31.146Z,2.15
2022-12-31T02:34:57.396Z,2.12
2022-12-31T02:37:23.665Z,2.26
2022-12-31T02:39:49.942Z,2.38
2022-12-31T02:42:16.211Z,2.35
2022-12-31T02:44:42.479Z,2.15
2022-12-31T02:47:08.750Z,2.30
2022-12-31T02:49:35.045Z,2.24
2022-12-31T02:52:01.340Z,2.11
2022-12-31T02:54:27.685Z,2.28
2022-12-31T02:56:54.027Z,2.24
2022-12-31T02:59:20.265Z,2.28
2022-12-31T03:01:46.630Z,2.34
2022-12-31T03:04:12.978Z,2.26
2022-12-31T03:06:39.232Z,1.98
2022-12-31T03:09:05.506Z,2.22
2022-12-31T03:11:31.772Z,2.20
2022-12-31T03:13:58.044Z,2.10
2022-12-31T03:16:24.332Z,2.22
2022-12-31T03:18:50.599Z,2.27
2022-12-31T03:21:16.866Z,2.27
2022-12-31T03:23:43.173Z,2.46
2022-12-31T03:26:09.444Z,2.35
2022-12-31T03:28:35.707Z,2.15
2022-12-31T03:31:02.032Z,2.32
2022-12-31T03:33:28.369Z,2.27
2022-12-31T03:35:54.626Z,2.21
2022-12-31T03:38:20.895Z,2.29
2022-12-31T03:40:47.141Z,2.11
2022-12-31T03:43:13.389Z,2.13
2022-12-31T03:45:39.714Z,2.18
2022-12-31T03:48:05.996Z,2.34
2022-12-31T03:50:32.256Z,2.21
2022-12-31T03:52:58.560Z,2.21
2022-12-31T03:55:24.822Z,2.00
2022-12-31T03:57:51.092Z,2.13
2022-12-31T04:00:17.479Z,2.13
2022-12-31T04:02:43.741Z,2.18
2022-12-31T04:05:10.151Z,2.09
2022-12-31T04:07:36.444Z,2.12
2022-12-31T04:10:02.695Z,2.17
2022-12-31T04:12:28.932Z,2.03
2022-12-31T04:14:55.210Z,2.36
2022-12-31T04:17:21.483Z,2.22
2022-12-31T04:19:47.755Z,2.12
2022-12-31T04:22:14.018Z,2.19
2022-12-31T04:24:40.292Z,2.33
2022-12-31T04:27:07.985Z,2.41
2022-12-31T04:29:34.503Z,2.23
2022-12-31T04:32:00.832Z,2.26
2022-12-31T04:34:27.158Z,2.27
2022-12-31T04:36:53.433Z,2.21
2022-12-31T04:39:19.687Z,2.13
2022-12-31T04:41:45.966Z,2.18
2022-12-31T04:44:12.241Z,2.33
2022-12-31T04:46:38.516Z,2.26
2022-12-31T04:49:04.774Z,2.34
2022-12-31T04:51:31.039Z,2.41
2022-12-31T04:53:57.303Z,2.42
2022-12-31T04:56:23.578Z,2.40
2022-12-31T04:58:49.852Z,2.24
2022-12-31T05:01:16.347Z,2.33
2022-12-31T05:03:42.748Z,2.47
2022-12-31T05:06:09.008Z,2.56
2022-12-31T05:08:35.281Z,2.54
2022-12-31T05:11:01.554Z,2.42
2022-12-31T05:13:32.872Z,2.59
2022-12-31T05:15:59.695Z,2.49
2022-12-31T05:18:25.959Z,2.32
2022-12-31T05:20:52.213Z,2.15
2022-12-31T05:23:18.485Z,2.31
2022-12-31T05:25:44.762Z,2.38
2022-12-31T05:28:11.040Z,2.35
2022-12-31T05:30:37.382Z,2.39
2022-12-31T05:33:03.743Z,2.18
2022-12-31T05:35:30.031Z,2.22
2022-12-31T05:37:57.342Z,2.06
2022-12-31T05:40:23.592Z,2.04
2022-12-31T05:42:49.883Z,2.25
2022-12-31T05:45:16.131Z,2.11
2022-12-31T05:47:42.460Z,2.29
2022-12-31T05:50:08.732Z,2.26
2022-12-31T05:52:34.987Z,2.22
2022-12-31T05:55:01.254Z,2.19
2022-12-31T05:57:27.545Z,2.15
2022-12-31T05:59:53.828Z,2.35
2022-12-31T06:02:20.137Z,1.99
2022-12-31T06:04:46.452Z,2.46
2022-12-31T06:07:12.720Z,2.24
2022-12-31T06:09:38.977Z,2.33
2022-12-31T06:12:05.220Z,2.27
2022-12-31T06:14:31.517Z,2.12
2022-12-31T06:16:57.839Z,2.04
2022-12-31T06:19:24.134Z,1.99
2022-12-31T06:21:50.405Z,2.05
2022-12-31T06:24:16.661Z,2.01
2022-12-31T06:26:42.924Z,2.14
2022-12-31T06:29:09.176Z,2.03
2022-12-31T06:31:35.486Z,2.00
2022-12-31T06:34:01.780Z,2.00
2022-12-31T06:36:28.076Z,2.21
2022-12-31T06:38:54.337Z,2.12
2022-12-31T06:41:20.619Z,2.05
2022-12-31T06:43:46.899Z,1.95
2022-12-31T06:46:13.394Z,2.06
2022-12-31T06:48:39.694Z,2.29
2022-12-31T06:51:05.952Z,1.91
2022-12-31T06:53:32.216Z,1.75
2022-12-31T06:55:58.472Z,1.92
2022-12-31T06:58:24.737Z,2.21
2022-12-31T07:00:51.027Z,2.85
2022-12-31T07:03:18.293Z,2.44
2022-12-31T07:05:44.560Z,2.00
2022-12-31T07:08:10.818Z,2.15
2022-12-31T07:10:37.076Z,2.04
2022-12-31T07:13:03.451Z,2.03
2022-12-31T07:15:29.730Z,1.66
2022-12-31T07:17:56.008Z,1.94
2022-12-31T07:20:22.272Z,2.13
2022-12-31T07:22:48.533Z,1.86
2022-12-31T07:25:14.797Z,2.19
2022-12-31T07:27:41.056Z,2.04
2022-12-31T07:30:07.351Z,1.95
2022-12-31T07:32:33.603Z,1.98
2022-12-31T07:34:59.869Z,2.04
2022-12-31T07:37:26.133Z,1.80
2022-12-31T07:39:52.408Z,1.83
2022-12-31T07:42:18.715Z,1.80
2022-12-31T07:44:44.987Z,1.58
2022-12-31T07:47:11.249Z,1.65
2022-12-31T07:49:37.493Z,1.71
2022-12-31T07:52:03.769Z,1.65
2022-12-31T07:54:30.022Z,1.72
2022-12-31T07:56:56.304Z,1.68
2022-12-31T07:59:24.433Z,1.99
2022-12-31T08:01:51.176Z,1.83
2022-12-31T08:04:17.567Z,1.57
2022-12-31T08:06:43.841Z,1.49
2022-12-31T08:09:10.115Z,1.54
2022-12-31T08:11:36.379Z,1.58
2022-12-31T08:14:02.634Z,1.58
2022-12-31T08:16:28.951Z,1.56
2022-12-31T08:18:55.205Z,1.46
2022-12-31T08:21:21.477Z,1.52
2022-12-31T08:23:47.743Z,1.51
2022-12-31T08:26:14.017Z,1.38
2022-12-31T08:28:40.301Z,1.34
2022-12-31T08:31:06.578Z,1.52
2022-12-31T08:33:32.847Z,1.33
2022-12-31T08:35:59.138Z,1.52
2022-12-31T08:38:25.408Z,1.37
2022-12-31T08:40:51.674Z,1.42
2022-12-31T08:43:17.952Z,1.51
2022-12-31T08:45:44.219Z,1.56
2022-12-31T08:48:10.523Z,1.44
2022-12-31T08:50:36.792Z,1.38
2022-12-31T08:53:03.024Z,1.43
2022-12-31T08:55:29.276Z,1.40
2022-12-31T08:57:55.526Z,1.28
2022-12-31T09:00:21.776Z,1.38
2022-12-31T09:02:48.452Z,1.72
2022-12-31T09:05:14.821Z,1.62
2022-12-31T09:07:41.095Z,1.37
2022-12-31T09:10:07.375Z,1.45
2022-12-31T09:12:33.655Z,1.33
2022-12-31T09:14:59.916Z,1.27
2022-12-31T09:17:26.193Z,1.50
2022-12-31T09:19:52.455Z,1.47
2022-12-31T09:22:18.757Z,1.17
2022-12-31T09:24:45.048Z,1.31
2022-12-31T09:27:11.333Z,1.21
2022-12-31T09:29:37.636Z,1.26
2022-12-31T09:32:03.924Z,1.40
2022-12-31T09:34:30.197Z,1.35
2022-12-31T09:36:56.462Z,1.41
2022-12-31T09:39:22.720Z,1.33
2022-12-31T09:41:48.996Z,1.38
2022-12-31T09:44:15.258Z,1.34
2022-12-31T09:46:41.529Z,1.34
2022-12-31T09:49:07.830Z,1.35
2022-12-31T09:51:34.091Z,1.23
2022-12-31T09:54:00.355Z,1.14
2022-12-31T09:56:26.597Z,1.29
2022-12-31T09:58:52.864Z,1.18
2022-12-31T10:01:19.205Z,1.13
2022-12-31T10:03:45.577Z,1.18
2022-12-31T10:06:11.853Z,1.08
2022-12-31T10:08:38.109Z,1.23
2022-12-31T10:11:04.377Z,1.13
2022-12-31T10:13:30.633Z,1.16
2022-12-31T10:15:56.929Z,1.17
2022-12-31T10:18:23.191Z,1.29
2022-12-31T10:20:49.448Z,1.26
2022-12-31T10:23:15.715Z,1.25
2022-12-31T10:25:41.976Z,1.29
2022-12-31T10:28:08.235Z,1.21
2022-12-31T10:30:34.512Z,1.26
2022-12-31T10:33:00.809Z,1.26
2022-12-31T10:35:27.082Z,1.22
2022-12-31T10:37:53.391Z,1.13
2022-12-31T10:40:19.657Z,1.03
2022-12-31T10:42:45.950Z,0.99
2022-12-31T10:45:12.188Z,1.09
2022-12-31T10:47:38.470Z,1.22
2022-12-31T10:50:04.716Z,1.27
2022-12-31T10:52:30.991Z,1.16
2022-12-31T10:54:57.276Z,1.15
2022-12-31T10:57:23.547Z,1.07
2022-12-31T10:59:49.798Z,1.02
2022-12-31T11:02:16.258Z,0.92
2022-12-31T11:04:42.694Z,1.03
2022-12-31T11:07:08.966Z,1.05
2022-12-31T11:09:35.224Z,1.20
2022-12-31T11:12:01.487Z,1.05
2022-12-31T11:14:27.773Z,1.18
2022-12-31T11:16:54.025Z,1.33
2022-12-31T11:19:20.260Z,1.12
2022-12-31T11:21:46.545Z,1.08
2022-12-31T11:24:12.831Z,1.04
2022-12-31T11:26:39.100Z,0.96
2022-12-31T11:29:05.345Z,1.00
2022-12-31T11:31:31.662Z,1.02
2022-12-31T11:33:57.965Z,0.97
2022-12-31T11:36:24.240Z,1.00
2022-12-31T11:38:50.497Z,1.02
2022-12-31T11:41:16.744Z,0.98
2022-12-31T11:43:42.988Z,0.92
2022-12-31T11:46:09.314Z,0.96
2022-12-31T11:48:35.621Z,1.22
2022-12-31T11:51:01.892Z,1.13
2022-12-31T11:53:28.158Z,0.98
2022-12-31T11:55:54.421Z,1.06
2022-12-31T11:58:20.680Z,1.05
2022-12-31T12:00:46.941Z,1.14
2022-12-31T12:03:13.312Z,1.34
2022-12-31T12:05:39.579Z,1.04
2022-12-31T12:08:05.849Z,0.95
2022-12-31T12:10:36.511Z,1.01
2022-12-31T12:13:03.256Z,1.11
2022-12-31T12:15:29.526Z,1.24
2022-12-31T12:17:55.775Z,1.20
2022-12-31T12:20:22.017Z,1.08
2022-12-31T12:22:49.600Z,0.97
2022-12-31T12:25:15.911Z,1.27
2022-12-31T12:27:42.206Z,1.34
2022-12-31T12:30:08.485Z,1.20
2022-12-31T12:32:34.776Z,1.08
2022-12-31T12:35:01.015Z,1.16
2022-12-31T12:37:27.261Z,1.13
2022-12-31T12:39:53.593Z,0.93
2022-12-31T12:42:19.833Z,1.10
2022-12-31T12:44:46.097Z,1.20
2022-12-31T12:47:12.486Z,1.14
2022-12-31T12:49:38.761Z,1.09
2022-12-31T12:52:05.022Z,1.03
2022-12-31T12:54:31.288Z,1.09
2022-12-31T12:56:57.535Z,1.15
2022-12-31T12:59:23.793Z,1.08
2022-12-31T13:01:50.306Z,1.08
2022-12-31T13:04:33.986Z,1.06
2022-12-31T13:07:00.806Z,1.14
2022-12-31T13:09:27.051Z,1.02
2022-12-31T13:11:53.292Z,1.06
2022-12-31T13:14:19.613Z,1.23
2022-12-31T13:16:45.951Z,1.16
2022-12-31T13:19:12.225Z,1.26
2022-12-31T13:21:38.475Z,1.27
2022-12-31T13:24:04.715Z,1.32
2022-12-31T13:26:30.977Z,1.40
2022-12-31T13:28:57.233Z,1.41
2022-12-31T13:31:23.522Z,1.36
2022-12-31T13:33:49.795Z,1.39
2022-12-31T13:36:16.148Z,1.30
2022-12-31T13:38:42.417Z,1.46
2022-12-31T13:41:08.716Z,1.60
2022-12-31T13:43:34.980Z,1.23
2022-12-31T13:46:01.313Z,1.39
2022-12-31T13:48:27.604Z,1.37
2022-12-31T13:50:53.883Z,1.59
2022-12-31T13:53:20.353Z,1.58
2022-12-31T13:55:48.060Z,1.65
2022-12-31T13:58:17.075Z,1.61
2022-12-31T14:00:43.360Z,1.31
2022-12-31T14:03:09.698Z,1.25
2022-12-31T14:05:35.993Z,1.15
2022-12-31T14:08:02.271Z,1.11
2022-12-31T14:10:28.520Z,1.22
2022-12-31T14:12:54.816Z,1.34
2022-12-31T14:15:21.071Z,1.30
2022-12-31T14:17:47.337Z,1.39
2022-12-31T14:20:13.603Z,1.24
2022-12-31T14:22:39.903Z,1.32
2022-12-31T14:25:06.146Z,1.41
2022-12-31T14:27:32.397Z,1.21
2022-12-31T14:29:58.670Z,1.18
2022-12-31T14:32:24.962Z,1.21
2022-12-31T14:34:51.251Z,1.23
2022-12-31T14:37:17.506Z,1.28
2022-12-31T14:39:43.740Z,1.16
2022-12-31T14:42:09.985Z,1.36
2022-12-31T14:44:36.235Z,1.43
2022-12-31T14:47:02.500Z,1.32
2022-12-31T14:49:28.773Z,1.29
2022-12-31T14:51:55.130Z,1.31
2022-12-31T14:54:25.666Z,1.45
2022-12-31T14:56:54.847Z,1.28
2022-12-31T14:59:21.138Z,1.28
2022-12-31T15:01:47.457Z,1.29
2022-12-31T15:04:13.792Z,1.28
2022-12-31T15:06:40.052Z,1.26
2022-12-31T15:09:08.550Z,1.27
2022-12-31T15:11:34.937Z,1.17
2022-12-31T15:14:01.199Z,1.21
2022-12-31T15:16:27.545Z,1.40
2022-12-31T15:18:53.819Z,1.43
2022-12-31T15:21:20.082Z,1.26
2022-12-31T15:23:46.332Z,1.23
2022-12-31T15:26:12.568Z,1.35
2022-12-31T15:28:38.849Z,1.49
2022-12-31T15:31:05.203Z,1.65
2022-12-31T15:33:31.600Z,1.55
2022-12-31T15:35:57.901Z,1.51
2022-12-31T15:38:24.184Z,1.43
2022-12-31T15:40:50.470Z,1.34
2022-12-31T15:43:16.748Z,1.38
2022-12-31T15:45:43.019Z,1.59
2022-12-31T15:48:09.272Z,1.42
2022-12-31T15:50:35.559Z,1.58
2022-12-31T15:53:01.826Z,1.75
2022-12-31T15:55:28.169Z,1.80
2022-12-31T15:57:54.444Z,1.63
2022-12-31T16:00:20.711Z,1.75
2022-12-31T16:02:47.079Z,1.71
2022-12-31T16:05:13.500Z,1.79
2022-12-31T16:07:39.827Z,1.75
2022-12-31T16:10:06.116Z,2.20
2022-12-31T16:12:34.375Z,2.07
2022-12-31T16:15:03.301Z,2.24
2022-12-31T16:17:29.608Z,2.13
2022-12-31T16:19:55.876Z,2.26
2022-12-31T16:22:22.130Z,2.21
2022-12-31T16:25:19.879Z,2.56
2022-12-31T16:27:34.661Z,2.45
2022-12-31T16:30:00.996Z,2.25
2022-12-31T16:32:27.299Z,1.87
2022-12-31T16:34:53.545Z,2.02
2022-12-31T16:37:19.815Z,2.11
2022-12-31T16:39:46.053Z,1.89
2022-12-31T16:42:12.619Z,1.87
2022-12-31T16:44:38.889Z,2.04
2022-12-31T16:47:05.128Z,1.79
2022-12-31T16:49:31.394Z,1.74
2022-12-31T16:51:57.682Z,2.23
2022-12-31T16:54:23.969Z,1.78
2022-12-31T16:56:50.234Z,1.82
2022-12-31T16:59:16.503Z,1.77
2022-12-31T17:01:42.883Z,1.74
2022-12-31T17:04:09.223Z,1.91
2022-12-31T17:06:35.497Z,1.89
2022-12-31T17:09:01.788Z,1.98
2022-12-31T17:11:28.034Z,2.26
2022-12-31T17:13:54.354Z,2.44
2022-12-31T17:16:20.638Z,2.43
2022-12-31T17:18:46.908Z,2.34
2022-12-31T17:21:13.157Z,2.49
2022-12-31T17:23:39.416Z,2.49
2022-12-31T17:26:05.681Z,2.29
2022-12-31T17:28:31.941Z,2.62
2022-12-31T17:30:58.288Z,2.04
2022-12-31T17:33:24.571Z,2.85
2022-12-31T17:35:50.825Z,4.41
2022-12-31T17:38:17.093Z,3.63
2022-12-31T17:40:51.930Z,4.88
2022-12-31T17:43:18.624Z,10.38
2022-12-31T17:45:44.880Z,5.32
2022-12-31T17:48:11.164Z,3.27
2022-12-31T17:50:37.434Z,2.90
2022-12-31T17:53:03.728Z,3.26
2022-12-31T17:55:29.996Z,3.28
2022-12-31T17:57:56.264Z,3.08
2022-12-31T18:00:22.534Z,2.83
2022-12-31T18:02:48.828Z,2.55
2022-12-31T18:05:15.192Z,2.55
2022-12-31T18:07:41.468Z,2.50
2022-12-31T18:10:07.741Z,2.44
2022-12-31T18:12:34.006Z,2.37
2022-12-31T18:15:00.281Z,2.34
2022-12-31T18:17:26.541Z,2.57
2022-12-31T18:20:09.182Z,2.57
2022-12-31T18:22:35.463Z,2.68
2022-12-31T18:25:01.738Z,2.71
2022-12-31T18:27:28.047Z,2.73
2022-12-31T18:29:59.125Z,2.79
2022-12-31T18:32:30.581Z,2.87
2022-12-31T18:34:56.835Z,3.05
2022-12-31T18:37:23.083Z,4.20
2022-12-31T18:39:49.334Z,4.68
2022-12-31T18:42:15.611Z,4.29
2022-12-31T18:44:41.877Z,3.99
2022-12-31T18:47:08.167Z,4.10
2022-12-31T18:49:34.409Z,4.07
2022-12-31T18:52:00.689Z,4.14
2022-12-31T18:54:26.957Z,4.67
2022-12-31T18:56:57.022Z,4.56
2022-12-31T18:59:23.641Z,4.47
2022-12-31T19:01:50.013Z,4.75
2022-12-31T19:04:20.047Z,4.56
2022-12-31T19:06:51.279Z,4.83
2022-12-31T19:09:43.340Z,5.02
2022-12-31T19:12:03.793Z,5.70
2022-12-31T19:14:30.074Z,5.77
2022-12-31T19:16:56.332Z,5.79
2022-12-31T19:19:22.570Z,5.93
2022-12-31T19:21:48.850Z,5.30
2022-12-31T19:24:15.164Z,5.76
2022-12-31T19:26:43.544Z,5.29
2022-12-31T19:29:09.998Z,5.50
2022-12-31T19:31:36.285Z,5.66
2022-12-31T19:34:02.685Z,5.66
2022-12-31T19:36:28.941Z,5.08
2022-12-31T19:38:55.215Z,5.41
2022-12-31T19:41:21.501Z,6.18
2022-12-31T19:43:47.771Z,5.47
2022-12-31T19:46:14.111Z,5.61
2022-12-31T19:48:40.405Z,5.18
2022-12-31T19:51:06.667Z,5.26
2022-12-31T19:53:32.933Z,6.18
2022-12-31T19:55:59.173Z,7.33
2022-12-31T19:58:25.520Z,8.21
2022-12-31T20:00:57.053Z,6.48
2022-12-31T20:03:24.680Z,5.50
2022-12-31T20:05:50.962Z,5.87
2022-12-31T20:08:17.255Z,5.28
2022-12-31T20:10:43.524Z,5.55
2022-12-31T20:13:09.777Z,4.90
2022-12-31T20:15:36.033Z,5.40
2022-12-31T20:18:02.305Z,5.12
2022-12-31T20:20:28.570Z,4.89
2022-12-31T20:22:54.835Z,4.90
2022-12-31T20:25:21.086Z,4.88
2022-12-31T20:27:47.350Z,5.00
2022-12-31T20:30:13.616Z,4.98
2022-12-31T20:32:39.976Z,5.63
2022-12-31T20:35:06.260Z,5.35
2022-12-31T20:37:32.521Z,5.83
2022-12-31T20:39:58.785Z,5.96
2022-12-31T20:42:25.036Z,5.46
2022-12-31T20:44:51.285Z,5.95
2022-12-31T20:47:17.529Z,5.17
2022-12-31T20:50:10.353Z,5.34
2022-12-31T20:52:30.037Z,5.72
2022-12-31T20:54:56.297Z,5.62
2022-12-31T20:57:22.553Z,5.71
2022-12-31T20:59:48.831Z,5.23
2022-12-31T21:02:29.584Z,5.29
2022-12-31T21:05:01.604Z,5.28
2022-12-31T21:07:27.966Z,5.31
2022-12-31T21:09:54.236Z,5.37
2022-12-31T21:12:20.502Z,5.45
2022-12-31T21:14:46.745Z,5.58
2022-12-31T21:17:13.007Z,5.82
2022-12-31T21:19:39.281Z,5.89
2022-12-31T21:22:05.643Z,5.78
2022-12-31T21:24:31.906Z,6.08
2022-12-31T21:26:58.184Z,6.53
2022-12-31T21:29:24.452Z,6.33
2022-12-31T21:31:50.738Z,6.23
2022-12-31T21:34:17.018Z,6.23
2022-12-31T21:36:43.266Z,7.64
2022-12-31T21:39:09.586Z,7.96
2022-12-31T21:41:35.852Z,7.22
2022-12-31T21:44:02.131Z,5.95
2022-12-31T21:46:28.463Z,5.98
2022-12-31T21:48:54.802Z,5.83
2022-12-31T21:51:21.053Z,5.98
2022-12-31T21:53:47.316Z,5.97
2022-12-31T21:56:13.590Z,5.82
2022-12-31T21:58:39.874Z,5.86
2022-12-31T22:01:06.154Z,5.68
2022-12-31T22:03:32.489Z,6.53
2022-12-31T22:05:58.802Z,6.43
2022-12-31T22:08:25.065Z,6.86
2022-12-31T22:10:52.941Z,6.68
2022-12-31T22:13:19.482Z,6.37
2022-12-31T22:15:45.798Z,6.64
2022-12-31T22:18:12.113Z,6.92
2022-12-31T22:20:38.377Z,7.98
2022-12-31T22:23:04.644Z,9.85
2022-12-31T22:25:31.110Z,8.16
2022-12-31T22:28:37.059Z,11.25
2022-12-31T22:30:43.688Z,6.11
2022-12-31T22:33:09.932Z,5.08
2022-12-31T22:35:36.191Z,4.98
2022-12-31T22:38:09.842Z,4.87
2022-12-31T22:40:38.087Z,4.78
2022-12-31T22:43:04.356Z,4.91
2022-12-31T22:45:30.592Z,4.86
2022-12-31T22:47:56.857Z,5.20
2022-12-31T22:50:23.137Z,4.86
2022-12-31T22:52:49.396Z,4.99
2022-12-31T22:55:15.709Z,5.82
2022-12-31T22:57:41.973Z,6.66
2022-12-31T23:00:08.236Z,5.99
2022-12-31T23:02:39.881Z,5.90
2022-12-31T23:05:15.344Z,5.48
2022-12-31T23:07:42.736Z,5.32
2022-12-31T23:10:09.012Z,5.63
2022-12-31T23:12:35.292Z,5.24
2022-12-31T23:15:01.568Z,6.33
2022-12-31T23:17:31.502Z,8.96
2022-12-31T23:19:58.206Z,9.93
2022-12-31T23:22:24.467Z,8.66
2022-12-31T23:24:50.754Z,7.52
2022-12-31T23:27:17.010Z,7.29
2022-12-31T23:29:47.107Z,7.01
2022-12-31T23:32:13.871Z,6.12
2022-12-31T23:34:40.196Z,5.82
2022-12-31T23:37:06.479Z,5.77
2022-12-31T23:39:32.755Z,5.63
2022-12-31T23:41:59.012Z,5.97
2022-12-31T23:44:25.318Z,5.41
2022-12-31T23:46:51.592Z,5.49
2022-12-31T23:49:17.877Z,5.31
2022-12-31T23:51:44.176Z,5.39
2022-12-31T23:54:10.429Z,5.51
2022-12-31T23:56:36.749Z,5.47
2022-12-31T23:59:03.018Z,5.72
